sensor_id;sensor_type;location;lat;lon;timestamp;P1;durP1;ratioP1;P2;durP2;ratioP2
57573;SDS011;68988;49.000;21.242;2023-06-22T00:02:13;4.32;;;4.03;;
57573;SDS011;68988;49.000;21.242;2023-06-22T00:04:38;4.18;;;3.88;;
57573;SDS011;68988;49.000;21.242;2023-06-22T00:07:04;5.43;;;4.18;;
57573;SDS011;68988;49.000;21.242;2023-06-22T00:09:30;3.95;;;3.65;;
57573;SDS011;68988;49.000;21.242;2023-06-22T00:11:56;3.88;;;3.65;;
57573;SDS011;68988;49.000;21.242;2023-06-22T00:14:21;4.25;;;3.88;;
57573;SDS011;68988;49.000;21.242;2023-06-22T00:16:47;4.60;;;4.20;;
57573;SDS011;68988;49.000;21.242;2023-06-22T00:19:13;4.00;;;3.70;;
57573;SDS011;68988;49.000;21.242;2023-06-22T00:21:39;4.30;;;4.07;;
57573;SDS011;68988;49.000;21.242;2023-06-22T00:24:05;6.15;;;4.10;;
57573;SDS011;68988;49.000;21.242;2023-06-22T00:26:31;3.85;;;3.55;;
57573;SDS011;68988;49.000;21.242;2023-06-22T00:28:56;4.15;;;3.90;;
57573;SDS011;68988;49.000;21.242;2023-06-22T00:31:22;5.78;;;3.95;;
57573;SDS011;68988;49.000;21.242;2023-06-22T00:33:47;4.40;;;4.00;;
57573;SDS011;68988;49.000;21.242;2023-06-22T00:36:12;3.67;;;3.47;;
57573;SDS011;68988;49.000;21.242;2023-06-22T00:38:41;4.25;;;3.83;;
57573;SDS011;68988;49.000;21.242;2023-06-22T00:41:07;4.25;;;3.85;;
57573;SDS011;68988;49.000;21.242;2023-06-22T00:43:32;3.85;;;3.55;;
57573;SDS011;68988;49.000;21.242;2023-06-22T00:45:57;4.38;;;3.97;;
57573;SDS011;68988;49.000;21.242;2023-06-22T00:48:23;3.85;;;3.65;;
57573;SDS011;68988;49.000;21.242;2023-06-22T00:50:49;3.92;;;3.58;;
57573;SDS011;68988;49.000;21.242;2023-06-22T00:53:16;7.10;;;3.90;;
57573;SDS011;68988;49.000;21.242;2023-06-22T00:55:43;3.70;;;3.50;;
57573;SDS011;68988;49.000;21.242;2023-06-22T00:58:11;4.38;;;3.78;;
57573;SDS011;68988;49.000;21.242;2023-06-22T01:00:39;4.05;;;3.65;;
57573;SDS011;68988;49.000;21.242;2023-06-22T01:03:06;6.13;;;3.97;;
57573;SDS011;68988;49.000;21.242;2023-06-22T01:05:34;4.10;;;3.80;;
57573;SDS011;68988;49.000;21.242;2023-06-22T01:10:45;6.93;;;3.80;;
57573;SDS011;68988;49.000;21.242;2023-06-22T01:13:44;4.38;;;3.78;;
57573;SDS011;68988;49.000;21.242;2023-06-22T01:18:45;4.25;;;3.85;;
57573;SDS011;68988;49.000;21.242;2023-06-22T01:21:14;4.13;;;3.78;;
57573;SDS011;68988;49.000;21.242;2023-06-22T01:28:53;4.30;;;3.92;;
57573;SDS011;68988;49.000;21.242;2023-06-22T01:31:24;6.93;;;4.30;;
57573;SDS011;68988;49.000;21.242;2023-06-22T01:33:53;4.93;;;3.88;;
57573;SDS011;68988;49.000;21.242;2023-06-22T01:36:21;4.38;;;4.03;;
57573;SDS011;68988;49.000;21.242;2023-06-22T01:38:48;4.85;;;4.35;;
57573;SDS011;68988;49.000;21.242;2023-06-22T01:41:14;4.45;;;4.05;;
57573;SDS011;68988;49.000;21.242;2023-06-22T01:43:41;4.60;;;4.20;;
57573;SDS011;68988;49.000;21.242;2023-06-22T01:46:07;6.15;;;4.05;;
57573;SDS011;68988;49.000;21.242;2023-06-22T01:48:33;4.53;;;4.22;;
57573;SDS011;68988;49.000;21.242;2023-06-22T01:50:59;4.63;;;4.28;;
57573;SDS011;68988;49.000;21.242;2023-06-22T01:53:24;5.47;;;4.28;;
57573;SDS011;68988;49.000;21.242;2023-06-22T01:55:50;4.82;;;4.15;;
57573;SDS011;68988;49.000;21.242;2023-06-22T01:58:15;4.32;;;4.03;;
57573;SDS011;68988;49.000;21.242;2023-06-22T02:00:44;4.28;;;3.97;;
57573;SDS011;68988;49.000;21.242;2023-06-22T02:03:18;8.13;;;4.15;;
57573;SDS011;68988;49.000;21.242;2023-06-22T02:08:20;4.72;;;3.63;;
57573;SDS011;68988;49.000;21.242;2023-06-22T02:10:48;4.65;;;4.25;;
57573;SDS011;68988;49.000;21.242;2023-06-22T02:13:15;6.40;;;4.38;;
57573;SDS011;68988;49.000;21.242;2023-06-22T02:15:42;4.32;;;3.92;;
57573;SDS011;68988;49.000;21.242;2023-06-22T02:18:08;4.43;;;4.07;;
57573;SDS011;68988;49.000;21.242;2023-06-22T02:20:36;4.32;;;4.03;;
57573;SDS011;68988;49.000;21.242;2023-06-22T02:23:02;4.43;;;4.05;;
57573;SDS011;68988;49.000;21.242;2023-06-22T02:25:27;4.43;;;4.03;;
57573;SDS011;68988;49.000;21.242;2023-06-22T02:27:53;6.95;;;4.00;;
57573;SDS011;68988;49.000;21.242;2023-06-22T02:30:18;4.18;;;3.90;;
57573;SDS011;68988;49.000;21.242;2023-06-22T02:32:43;4.57;;;4.25;;
57573;SDS011;68988;49.000;21.242;2023-06-22T02:35:09;5.57;;;4.20;;
57573;SDS011;68988;49.000;21.242;2023-06-22T02:37:35;4.20;;;3.90;;
57573;SDS011;68988;49.000;21.242;2023-06-22T02:40:04;4.43;;;4.07;;
57573;SDS011;68988;49.000;21.242;2023-06-22T02:42:31;6.53;;;4.70;;
57573;SDS011;68988;49.000;21.242;2023-06-22T02:44:57;4.18;;;3.88;;
57573;SDS011;68988;49.000;21.242;2023-06-22T02:47:22;4.28;;;3.97;;
57573;SDS011;68988;49.000;21.242;2023-06-22T02:49:48;4.07;;;3.78;;
57573;SDS011;68988;49.000;21.242;2023-06-22T02:52:13;4.63;;;4.40;;
57573;SDS011;68988;49.000;21.242;2023-06-22T02:54:38;4.10;;;3.80;;
57573;SDS011;68988;49.000;21.242;2023-06-22T02:57:04;4.32;;;4.05;;
57573;SDS011;68988;49.000;21.242;2023-06-22T02:59:30;4.28;;;3.97;;
57573;SDS011;68988;49.000;21.242;2023-06-22T03:01:55;4.32;;;4.05;;
57573;SDS011;68988;49.000;21.242;2023-06-22T03:04:20;4.07;;;3.88;;
57573;SDS011;68988;49.000;21.242;2023-06-22T03:06:46;3.53;;;3.33;;
57573;SDS011;68988;49.000;21.242;2023-06-22T03:09:16;4.32;;;4.10;;
57573;SDS011;68988;49.000;21.242;2023-06-22T03:11:42;4.32;;;4.00;;
57573;SDS011;68988;49.000;21.242;2023-06-22T03:14:07;4.18;;;3.88;;
57573;SDS011;68988;49.000;21.242;2023-06-22T03:16:33;4.35;;;4.05;;
57573;SDS011;68988;49.000;21.242;2023-06-22T03:18:58;5.10;;;4.47;;
57573;SDS011;68988;49.000;21.242;2023-06-22T03:21:26;4.15;;;3.88;;
57573;SDS011;68988;49.000;21.242;2023-06-22T03:23:53;4.03;;;3.72;;
57573;SDS011;68988;49.000;21.242;2023-06-22T03:26:18;4.50;;;4.20;;
57573;SDS011;68988;49.000;21.242;2023-06-22T03:28:44;4.53;;;4.20;;
57573;SDS011;68988;49.000;21.242;2023-06-22T03:31:10;3.95;;;3.65;;
57573;SDS011;68988;49.000;21.242;2023-06-22T03:33:35;3.97;;;3.78;;
57573;SDS011;68988;49.000;21.242;2023-06-22T03:36:00;4.50;;;4.30;;
57573;SDS011;68988;49.000;21.242;2023-06-22T03:38:26;4.50;;;4.20;;
57573;SDS011;68988;49.000;21.242;2023-06-22T03:40:51;4.07;;;3.75;;
57573;SDS011;68988;49.000;21.242;2023-06-22T03:43:17;6.28;;;4.03;;
57573;SDS011;68988;49.000;21.242;2023-06-22T03:45:42;4.30;;;4.10;;
57573;SDS011;68988;49.000;21.242;2023-06-22T03:48:10;4.60;;;4.18;;
57573;SDS011;68988;49.000;21.242;2023-06-22T03:50:35;4.75;;;4.45;;
57573;SDS011;68988;49.000;21.242;2023-06-22T03:53:01;4.38;;;4.18;;
57573;SDS011;68988;49.000;21.242;2023-06-22T03:55:26;4.55;;;4.25;;
57573;SDS011;68988;49.000;21.242;2023-06-22T03:57:52;4.18;;;3.97;;
57573;SDS011;68988;49.000;21.242;2023-06-22T04:00:19;4.60;;;4.30;;
57573;SDS011;68988;49.000;21.242;2023-06-22T04:02:44;4.75;;;4.35;;
57573;SDS011;68988;49.000;21.242;2023-06-22T04:05:10;4.50;;;4.25;;
57573;SDS011;68988;49.000;21.242;2023-06-22T04:07:35;4.32;;;4.10;;
57573;SDS011;68988;49.000;21.242;2023-06-22T04:10:04;4.80;;;4.40;;
57573;SDS011;68988;49.000;21.242;2023-06-22T04:12:30;4.55;;;4.18;;
57573;SDS011;68988;49.000;21.242;2023-06-22T04:14:55;5.05;;;4.30;;
57573;SDS011;68988;49.000;21.242;2023-06-22T04:17:21;5.70;;;4.55;;
57573;SDS011;68988;49.000;21.242;2023-06-22T04:19:46;5.20;;;4.30;;
57573;SDS011;68988;49.000;21.242;2023-06-22T04:22:12;4.53;;;4.22;;
57573;SDS011;68988;49.000;21.242;2023-06-22T04:24:37;4.93;;;4.53;;
57573;SDS011;68988;49.000;21.242;2023-06-22T04:27:03;5.50;;;4.05;;
57573;SDS011;68988;49.000;21.242;2023-06-22T04:29:29;4.53;;;4.18;;
57573;SDS011;68988;49.000;21.242;2023-06-22T04:31:58;4.43;;;4.13;;
57573;SDS011;68988;49.000;21.242;2023-06-22T04:36:53;4.40;;;4.10;;
57573;SDS011;68988;49.000;21.242;2023-06-22T04:39:19;4.03;;;3.83;;
57573;SDS011;68988;49.000;21.242;2023-06-22T04:41:44;4.70;;;4.30;;
57573;SDS011;68988;49.000;21.242;2023-06-22T04:46:36;6.10;;;4.43;;
57573;SDS011;68988;49.000;21.242;2023-06-22T04:49:03;4.30;;;4.00;;
57573;SDS011;68988;49.000;21.242;2023-06-22T04:51:41;5.47;;;4.00;;
57573;SDS011;68988;49.000;21.242;2023-06-22T04:54:07;4.95;;;4.55;;
57573;SDS011;68988;49.000;21.242;2023-06-22T04:56:34;3.95;;;3.55;;
57573;SDS011;68988;49.000;21.242;2023-06-22T04:58:59;14.60;;;6.60;;
57573;SDS011;68988;49.000;21.242;2023-06-22T05:01:25;7.53;;;6.50;;
57573;SDS011;68988;49.000;21.242;2023-06-22T05:03:50;9.02;;;6.55;;
57573;SDS011;68988;49.000;21.242;2023-06-22T05:06:20;9.68;;;6.90;;
57573;SDS011;68988;49.000;21.242;2023-06-22T05:08:51;9.02;;;6.60;;
57573;SDS011;68988;49.000;21.242;2023-06-22T05:11:22;11.18;;;6.25;;
57573;SDS011;68988;49.000;21.242;2023-06-22T05:13:48;7.00;;;6.50;;
57573;SDS011;68988;49.000;21.242;2023-06-22T05:16:13;10.15;;;7.00;;
57573;SDS011;68988;49.000;21.242;2023-06-22T05:18:38;9.98;;;6.85;;
57573;SDS011;68988;49.000;21.242;2023-06-22T05:21:04;9.13;;;6.82;;
57573;SDS011;68988;49.000;21.242;2023-06-22T05:23:29;15.88;;;6.72;;
57573;SDS011;68988;49.000;21.242;2023-06-22T05:25:54;9.13;;;6.70;;
57573;SDS011;68988;49.000;21.242;2023-06-22T05:28:22;7.82;;;6.80;;
57573;SDS011;68988;49.000;21.242;2023-06-22T05:30:48;17.17;;;7.15;;
57573;SDS011;68988;49.000;21.242;2023-06-22T05:33:13;8.43;;;7.00;;
57573;SDS011;68988;49.000;21.242;2023-06-22T05:35:38;6.75;;;6.18;;
57573;SDS011;68988;49.000;21.242;2023-06-22T05:38:04;15.35;;;7.30;;
57573;SDS011;68988;49.000;21.242;2023-06-22T05:40:29;8.50;;;6.50;;
57573;SDS011;68988;49.000;21.242;2023-06-22T05:42:54;15.45;;;6.65;;
57573;SDS011;68988;49.000;21.242;2023-06-22T05:45:20;8.73;;;7.05;;
57573;SDS011;68988;49.000;21.242;2023-06-22T05:47:45;9.63;;;6.63;;
57573;SDS011;68988;49.000;21.242;2023-06-22T05:50:10;11.15;;;6.30;;
57573;SDS011;68988;49.000;21.242;2023-06-22T05:52:36;7.72;;;5.47;;
57573;SDS011;68988;49.000;21.242;2023-06-22T05:55:02;7.07;;;4.95;;
57573;SDS011;68988;49.000;21.242;2023-06-22T05:57:27;9.43;;;5.00;;
57573;SDS011;68988;49.000;21.242;2023-06-22T05:59:53;7.35;;;4.70;;
57573;SDS011;68988;49.000;21.242;2023-06-22T06:02:19;5.65;;;4.60;;
57573;SDS011;68988;49.000;21.242;2023-06-22T06:04:44;6.63;;;4.75;;
57573;SDS011;68988;49.000;21.242;2023-06-22T06:07:10;11.13;;;4.38;;
57573;SDS011;68988;49.000;21.242;2023-06-22T06:09:35;7.00;;;4.40;;
57573;SDS011;68988;49.000;21.242;2023-06-22T06:12:00;5.53;;;4.70;;
57573;SDS011;68988;49.000;21.242;2023-06-22T06:14:28;6.97;;;4.18;;
57573;SDS011;68988;49.000;21.242;2023-06-22T06:16:53;8.15;;;4.10;;
57573;SDS011;68988;49.000;21.242;2023-06-22T06:19:18;8.52;;;4.82;;
57573;SDS011;68988;49.000;21.242;2023-06-22T06:21:44;8.55;;;4.35;;
57573;SDS011;68988;49.000;21.242;2023-06-22T06:24:09;6.07;;;4.50;;
57573;SDS011;68988;49.000;21.242;2023-06-22T06:26:35;9.65;;;4.10;;
57573;SDS011;68988;49.000;21.242;2023-06-22T06:29:00;8.07;;;4.22;;
57573;SDS011;68988;49.000;21.242;2023-06-22T06:31:27;6.45;;;3.97;;
57573;SDS011;68988;49.000;21.242;2023-06-22T06:33:53;8.07;;;5.03;;
57573;SDS011;68988;49.000;21.242;2023-06-22T06:36:20;5.57;;;4.30;;
57573;SDS011;68988;49.000;21.242;2023-06-22T06:38:45;11.38;;;4.18;;
57573;SDS011;68988;49.000;21.242;2023-06-22T06:41:12;10.85;;;4.22;;
57573;SDS011;68988;49.000;21.242;2023-06-22T06:43:38;19.17;;;4.35;;
57573;SDS011;68988;49.000;21.242;2023-06-22T06:46:04;8.65;;;4.05;;
57573;SDS011;68988;49.000;21.242;2023-06-22T06:48:29;5.50;;;4.25;;
57573;SDS011;68988;49.000;21.242;2023-06-22T06:50:55;9.52;;;4.40;;
57573;SDS011;68988;49.000;21.242;2023-06-22T06:53:20;4.93;;;3.72;;
57573;SDS011;68988;49.000;21.242;2023-06-22T06:55:46;10.88;;;4.30;;
57573;SDS011;68988;49.000;21.242;2023-06-22T06:58:11;10.50;;;4.28;;
57573;SDS011;68988;49.000;21.242;2023-06-22T07:00:38;10.30;;;4.28;;
57573;SDS011;68988;49.000;21.242;2023-06-22T07:03:04;9.25;;;4.45;;
57573;SDS011;68988;49.000;21.242;2023-06-22T07:05:29;7.68;;;4.00;;
57573;SDS011;68988;49.000;21.242;2023-06-22T07:07:55;13.93;;;4.32;;
57573;SDS011;68988;49.000;21.242;2023-06-22T07:10:20;4.38;;;3.97;;
57573;SDS011;68988;49.000;21.242;2023-06-22T07:12:46;9.70;;;4.10;;
57573;SDS011;68988;49.000;21.242;2023-06-22T07:15:11;12.02;;;3.90;;
57573;SDS011;68988;49.000;21.242;2023-06-22T07:17:37;7.55;;;3.75;;
57573;SDS011;68988;49.000;21.242;2023-06-22T07:20:07;12.15;;;3.65;;
57573;SDS011;68988;49.000;21.242;2023-06-22T07:22:35;10.27;;;3.50;;
57573;SDS011;68988;49.000;21.242;2023-06-22T07:25:01;6.70;;;3.90;;
57573;SDS011;68988;49.000;21.242;2023-06-22T07:27:30;8.93;;;3.70;;
57573;SDS011;68988;49.000;21.242;2023-06-22T07:30:00;11.57;;;3.58;;
57573;SDS011;68988;49.000;21.242;2023-06-22T07:32:26;9.50;;;3.40;;
57573;SDS011;68988;49.000;21.242;2023-06-22T07:34:53;16.65;;;3.72;;
57573;SDS011;68988;49.000;21.242;2023-06-22T07:37:18;11.98;;;3.85;;
57573;SDS011;68988;49.000;21.242;2023-06-22T07:39:44;5.63;;;3.25;;
57573;SDS011;68988;49.000;21.242;2023-06-22T07:42:09;9.25;;;3.58;;
57573;SDS011;68988;49.000;21.242;2023-06-22T07:44:35;8.27;;;3.78;;
57573;SDS011;68988;49.000;21.242;2023-06-22T07:47:00;7.78;;;2.92;;
57573;SDS011;68988;49.000;21.242;2023-06-22T07:49:27;4.60;;;3.15;;
57573;SDS011;68988;49.000;21.242;2023-06-22T07:51:52;3.97;;;3.13;;
57573;SDS011;68988;49.000;21.242;2023-06-22T07:54:18;4.88;;;3.15;;
57573;SDS011;68988;49.000;21.242;2023-06-22T07:56:43;9.25;;;3.63;;
57573;SDS011;68988;49.000;21.242;2023-06-22T07:59:09;16.35;;;3.00;;
57573;SDS011;68988;49.000;21.242;2023-06-22T08:01:34;6.32;;;3.50;;
57573;SDS011;68988;49.000;21.242;2023-06-22T08:04:00;11.57;;;3.28;;
57573;SDS011;68988;49.000;21.242;2023-06-22T08:06:25;11.25;;;3.50;;
57573;SDS011;68988;49.000;21.242;2023-06-22T08:08:51;15.98;;;3.28;;
57573;SDS011;68988;49.000;21.242;2023-06-22T08:11:17;15.55;;;3.42;;
57573;SDS011;68988;49.000;21.242;2023-06-22T08:13:43;21.00;;;4.00;;
57573;SDS011;68988;49.000;21.242;2023-06-22T08:16:08;11.80;;;3.47;;
57573;SDS011;68988;49.000;21.242;2023-06-22T08:18:34;10.63;;;3.50;;
57573;SDS011;68988;49.000;21.242;2023-06-22T08:20:59;10.32;;;3.20;;
57573;SDS011;68988;49.000;21.242;2023-06-22T08:23:24;11.18;;;3.45;;
57573;SDS011;68988;49.000;21.242;2023-06-22T08:25:50;9.23;;;3.65;;
57573;SDS011;68988;49.000;21.242;2023-06-22T08:28:15;14.70;;;3.70;;
57573;SDS011;68988;49.000;21.242;2023-06-22T08:30:41;8.48;;;3.30;;
57573;SDS011;68988;49.000;21.242;2023-06-22T08:33:06;8.65;;;3.13;;
57573;SDS011;68988;49.000;21.242;2023-06-22T08:35:32;3.33;;;3.00;;
57573;SDS011;68988;49.000;21.242;2023-06-22T08:37:57;18.80;;;3.38;;
57573;SDS011;68988;49.000;21.242;2023-06-22T08:40:23;12.20;;;3.28;;
57573;SDS011;68988;49.000;21.242;2023-06-22T08:42:49;7.53;;;3.05;;
57573;SDS011;68988;49.000;21.242;2023-06-22T08:45:15;5.63;;;3.10;;
57573;SDS011;68988;49.000;21.242;2023-06-22T08:47:41;8.38;;;2.97;;
57573;SDS011;68988;49.000;21.242;2023-06-22T08:50:07;6.93;;;3.10;;
57573;SDS011;68988;49.000;21.242;2023-06-22T08:52:37;11.85;;;3.20;;
57573;SDS011;68988;49.000;21.242;2023-06-22T08:55:03;5.38;;;2.88;;
57573;SDS011;68988;49.000;21.242;2023-06-22T08:57:29;6.82;;;2.97;;
57573;SDS011;68988;49.000;21.242;2023-06-22T08:59:55;7.22;;;3.05;;
57573;SDS011;68988;49.000;21.242;2023-06-22T09:02:23;6.03;;;2.65;;
57573;SDS011;68988;49.000;21.242;2023-06-22T09:04:49;5.68;;;2.60;;
57573;SDS011;68988;49.000;21.242;2023-06-22T09:07:21;5.05;;;2.60;;
57573;SDS011;68988;49.000;21.242;2023-06-22T09:09:48;4.65;;;3.10;;
57573;SDS011;68988;49.000;21.242;2023-06-22T09:12:13;6.10;;;3.20;;
57573;SDS011;68988;49.000;21.242;2023-06-22T09:14:39;17.35;;;3.05;;
57573;SDS011;68988;49.000;21.242;2023-06-22T09:17:04;11.63;;;3.13;;
57573;SDS011;68988;49.000;21.242;2023-06-22T09:19:30;19.40;;;3.55;;
57573;SDS011;68988;49.000;21.242;2023-06-22T09:21:55;17.60;;;3.92;;
57573;SDS011;68988;49.000;21.242;2023-06-22T09:24:21;10.50;;;3.08;;
57573;SDS011;68988;49.000;21.242;2023-06-22T09:26:46;8.27;;;3.40;;
57573;SDS011;68988;49.000;21.242;2023-06-22T09:29:11;7.63;;;3.50;;
57573;SDS011;68988;49.000;21.242;2023-06-22T09:31:37;4.95;;;3.00;;
57573;SDS011;68988;49.000;21.242;2023-06-22T09:34:02;19.75;;;3.53;;
57573;SDS011;68988;49.000;21.242;2023-06-22T09:36:27;9.30;;;2.92;;
57573;SDS011;68988;49.000;21.242;2023-06-22T09:38:53;8.63;;;2.90;;
57573;SDS011;68988;49.000;21.242;2023-06-22T09:41:23;7.85;;;3.10;;
57573;SDS011;68988;49.000;21.242;2023-06-22T09:43:49;15.63;;;3.90;;
57573;SDS011;68988;49.000;21.242;2023-06-22T09:46:17;9.23;;;3.58;;
57573;SDS011;68988;49.000;21.242;2023-06-22T09:48:42;12.57;;;3.67;;
57573;SDS011;68988;49.000;21.242;2023-06-22T09:51:08;17.83;;;3.90;;
57573;SDS011;68988;49.000;21.242;2023-06-22T09:53:34;9.48;;;4.18;;
57573;SDS011;68988;49.000;21.242;2023-06-22T09:56:03;12.43;;;4.03;;
57573;SDS011;68988;49.000;21.242;2023-06-22T09:58:28;6.70;;;4.00;;
57573;SDS011;68988;49.000;21.242;2023-06-22T10:00:54;7.55;;;3.38;;
57573;SDS011;68988;49.000;21.242;2023-06-22T10:03:19;7.93;;;4.38;;
57573;SDS011;68988;49.000;21.242;2023-06-22T10:05:45;9.55;;;4.35;;
57573;SDS011;68988;49.000;21.242;2023-06-22T10:08:10;11.77;;;4.03;;
57573;SDS011;68988;49.000;21.242;2023-06-22T10:10:36;12.65;;;4.30;;
57573;SDS011;68988;49.000;21.242;2023-06-22T10:13:08;8.55;;;4.00;;
57573;SDS011;68988;49.000;21.242;2023-06-22T10:15:37;11.07;;;4.07;;
57573;SDS011;68988;49.000;21.242;2023-06-22T10:18:03;9.50;;;4.35;;
57573;SDS011;68988;49.000;21.242;2023-06-22T10:20:29;5.15;;;4.13;;
57573;SDS011;68988;49.000;21.242;2023-06-22T10:22:54;9.07;;;4.15;;
57573;SDS011;68988;49.000;21.242;2023-06-22T10:25:21;11.73;;;4.30;;
57573;SDS011;68988;49.000;21.242;2023-06-22T10:27:47;8.48;;;3.85;;
57573;SDS011;68988;49.000;21.242;2023-06-22T10:30:12;5.57;;;4.10;;
57573;SDS011;68988;49.000;21.242;2023-06-22T10:32:39;7.18;;;4.00;;
57573;SDS011;68988;49.000;21.242;2023-06-22T10:35:05;8.00;;;4.18;;
57573;SDS011;68988;49.000;21.242;2023-06-22T10:37:31;12.93;;;4.63;;
57573;SDS011;68988;49.000;21.242;2023-06-22T10:39:56;4.40;;;4.00;;
57573;SDS011;68988;49.000;21.242;2023-06-22T10:42:22;6.90;;;4.18;;
57573;SDS011;68988;49.000;21.242;2023-06-22T10:44:47;8.38;;;4.78;;
57573;SDS011;68988;49.000;21.242;2023-06-22T10:47:12;11.73;;;4.32;;
57573;SDS011;68988;49.000;21.242;2023-06-22T10:49:38;9.88;;;4.40;;
57573;SDS011;68988;49.000;21.242;2023-06-22T10:52:05;9.02;;;4.53;;
57573;SDS011;68988;49.000;21.242;2023-06-22T10:54:32;10.82;;;4.95;;
57573;SDS011;68988;49.000;21.242;2023-06-22T10:56:58;11.50;;;4.85;;
57573;SDS011;68988;49.000;21.242;2023-06-22T10:59:24;9.85;;;4.80;;
57573;SDS011;68988;49.000;21.242;2023-06-22T11:01:50;9.57;;;5.03;;
57573;SDS011;68988;49.000;21.242;2023-06-22T11:04:16;10.68;;;4.78;;
57573;SDS011;68988;49.000;21.242;2023-06-22T11:06:42;5.53;;;4.47;;
57573;SDS011;68988;49.000;21.242;2023-06-22T11:09:08;7.53;;;4.70;;
57573;SDS011;68988;49.000;21.242;2023-06-22T11:11:34;9.30;;;4.82;;
57573;SDS011;68988;49.000;21.242;2023-06-22T11:13:59;6.90;;;4.47;;
57573;SDS011;68988;49.000;21.242;2023-06-22T11:16:24;9.70;;;4.78;;
57573;SDS011;68988;49.000;21.242;2023-06-22T11:18:50;5.25;;;4.75;;
57573;SDS011;68988;49.000;21.242;2023-06-22T11:21:15;11.85;;;5.00;;
57573;SDS011;68988;49.000;21.242;2023-06-22T11:23:41;6.03;;;5.10;;
57573;SDS011;68988;49.000;21.242;2023-06-22T11:26:07;8.32;;;4.85;;
57573;SDS011;68988;49.000;21.242;2023-06-22T11:28:32;6.88;;;4.45;;
57573;SDS011;68988;49.000;21.242;2023-06-22T11:30:58;4.93;;;4.50;;
57573;SDS011;68988;49.000;21.242;2023-06-22T11:33:23;9.93;;;4.28;;
57573;SDS011;68988;49.000;21.242;2023-06-22T11:35:49;7.93;;;4.78;;
57573;SDS011;68988;49.000;21.242;2023-06-22T11:38:14;6.40;;;5.03;;
57573;SDS011;68988;49.000;21.242;2023-06-22T11:40:40;9.40;;;4.38;;
57573;SDS011;68988;49.000;21.242;2023-06-22T11:43:05;6.25;;;4.32;;
57573;SDS011;68988;49.000;21.242;2023-06-22T11:45:30;5.32;;;4.45;;
57573;SDS011;68988;49.000;21.242;2023-06-22T11:47:56;4.97;;;4.57;;
57573;SDS011;68988;49.000;21.242;2023-06-22T11:50:21;6.90;;;4.40;;
57573;SDS011;68988;49.000;21.242;2023-06-22T11:52:46;4.72;;;4.32;;
57573;SDS011;68988;49.000;21.242;2023-06-22T11:55:12;6.35;;;4.47;;
57573;SDS011;68988;49.000;21.242;2023-06-22T11:57:38;4.80;;;4.32;;
57573;SDS011;68988;49.000;21.242;2023-06-22T12:00:16;4.95;;;4.43;;
57573;SDS011;68988;49.000;21.242;2023-06-22T12:02:43;7.95;;;5.05;;
57573;SDS011;68988;49.000;21.242;2023-06-22T12:05:10;11.85;;;4.60;;
57573;SDS011;68988;49.000;21.242;2023-06-22T12:07:35;5.10;;;4.70;;
57573;SDS011;68988;49.000;21.242;2023-06-22T12:10:02;5.35;;;4.95;;
57573;SDS011;68988;49.000;21.242;2023-06-22T12:12:27;5.05;;;4.65;;
57573;SDS011;68988;49.000;21.242;2023-06-22T12:14:53;5.07;;;4.63;;
57573;SDS011;68988;49.000;21.242;2023-06-22T12:17:18;5.72;;;5.18;;
57573;SDS011;68988;49.000;21.242;2023-06-22T12:19:44;9.23;;;4.50;;
57573;SDS011;68988;49.000;21.242;2023-06-22T12:22:09;9.13;;;4.90;;
57573;SDS011;68988;49.000;21.242;2023-06-22T12:24:34;10.50;;;4.63;;
57573;SDS011;68988;49.000;21.242;2023-06-22T12:27:00;8.80;;;5.13;;
57573;SDS011;68988;49.000;21.242;2023-06-22T12:29:25;5.32;;;4.50;;
57573;SDS011;68988;49.000;21.242;2023-06-22T12:31:50;6.75;;;4.60;;
57573;SDS011;68988;49.000;21.242;2023-06-22T12:34:17;6.70;;;4.50;;
57573;SDS011;68988;49.000;21.242;2023-06-22T12:36:42;13.35;;;4.95;;
57573;SDS011;68988;49.000;21.242;2023-06-22T12:39:08;8.95;;;5.30;;
57573;SDS011;68988;49.000;21.242;2023-06-22T12:41:33;8.45;;;4.10;;
57573;SDS011;68988;49.000;21.242;2023-06-22T12:43:58;13.93;;;4.68;;
57573;SDS011;68988;49.000;21.242;2023-06-22T12:46:24;6.93;;;4.72;;
57573;SDS011;68988;49.000;21.242;2023-06-22T12:48:49;14.20;;;4.70;;
57573;SDS011;68988;49.000;21.242;2023-06-22T12:51:20;13.27;;;4.45;;
57573;SDS011;68988;49.000;21.242;2023-06-22T12:53:46;4.35;;;4.10;;
57573;SDS011;68988;49.000;21.242;2023-06-22T12:56:12;6.55;;;4.53;;
57573;SDS011;68988;49.000;21.242;2023-06-22T12:58:37;7.20;;;4.75;;
57573;SDS011;68988;49.000;21.242;2023-06-22T13:01:03;14.63;;;4.68;;
57573;SDS011;68988;49.000;21.242;2023-06-22T13:03:28;14.13;;;4.75;;
57573;SDS011;68988;49.000;21.242;2023-06-22T13:05:53;13.43;;;4.55;;
57573;SDS011;68988;49.000;21.242;2023-06-22T13:08:19;7.07;;;4.20;;
57573;SDS011;68988;49.000;21.242;2023-06-22T13:10:44;5.90;;;4.40;;
57573;SDS011;68988;49.000;21.242;2023-06-22T13:13:10;9.77;;;4.57;;
57573;SDS011;68988;49.000;21.242;2023-06-22T13:15:35;7.57;;;4.22;;
57573;SDS011;68988;49.000;21.242;2023-06-22T13:18:00;6.32;;;4.07;;
57573;SDS011;68988;49.000;21.242;2023-06-22T13:20:26;9.10;;;4.80;;
57573;SDS011;68988;49.000;21.242;2023-06-22T13:22:53;9.30;;;4.65;;
57573;SDS011;68988;49.000;21.242;2023-06-22T13:25:19;4.72;;;4.10;;
57573;SDS011;68988;49.000;21.242;2023-06-22T13:27:47;8.88;;;4.57;;
57573;SDS011;68988;49.000;21.242;2023-06-22T13:30:12;9.35;;;4.35;;
57573;SDS011;68988;49.000;21.242;2023-06-22T13:32:38;16.70;;;5.20;;
57573;SDS011;68988;49.000;21.242;2023-06-22T13:35:06;4.85;;;4.55;;
57573;SDS011;68988;49.000;21.242;2023-06-22T13:37:32;4.85;;;3.83;;
57573;SDS011;68988;49.000;21.242;2023-06-22T13:39:58;6.72;;;4.45;;
57573;SDS011;68988;49.000;21.242;2023-06-22T13:42:24;5.13;;;4.72;;
57573;SDS011;68988;49.000;21.242;2023-06-22T13:44:50;5.55;;;4.60;;
57573;SDS011;68988;49.000;21.242;2023-06-22T13:47:15;5.72;;;4.70;;
57573;SDS011;68988;49.000;21.242;2023-06-22T13:49:40;5.00;;;4.20;;
57573;SDS011;68988;49.000;21.242;2023-06-22T13:52:06;6.07;;;5.20;;
57573;SDS011;68988;49.000;21.242;2023-06-22T13:54:35;4.93;;;4.47;;
57573;SDS011;68988;49.000;21.242;2023-06-22T13:57:01;5.00;;;4.70;;
57573;SDS011;68988;49.000;21.242;2023-06-22T13:59:26;4.88;;;4.47;;
57573;SDS011;68988;49.000;21.242;2023-06-22T14:01:53;8.50;;;4.80;;
57573;SDS011;68988;49.000;21.242;2023-06-22T14:04:18;4.72;;;4.43;;
57573;SDS011;68988;49.000;21.242;2023-06-22T14:06:43;6.97;;;4.50;;
57573;SDS011;68988;49.000;21.242;2023-06-22T14:09:09;4.75;;;4.30;;
57573;SDS011;68988;49.000;21.242;2023-06-22T14:11:34;5.28;;;4.80;;
57573;SDS011;68988;49.000;21.242;2023-06-22T14:14:00;5.00;;;4.50;;
57573;SDS011;68988;49.000;21.242;2023-06-22T14:16:25;5.93;;;4.75;;
57573;SDS011;68988;49.000;21.242;2023-06-22T14:18:50;5.13;;;4.78;;
57573;SDS011;68988;49.000;21.242;2023-06-22T14:21:16;10.38;;;5.00;;
57573;SDS011;68988;49.000;21.242;2023-06-22T14:23:41;5.38;;;4.80;;
57573;SDS011;68988;49.000;21.242;2023-06-22T14:26:06;13.95;;;5.18;;
57573;SDS011;68988;49.000;21.242;2023-06-22T14:28:32;7.00;;;5.53;;
57573;SDS011;68988;49.000;21.242;2023-06-22T14:30:57;10.57;;;5.13;;
57573;SDS011;68988;49.000;21.242;2023-06-22T14:33:23;13.23;;;5.35;;
57573;SDS011;68988;49.000;21.242;2023-06-22T14:35:48;5.45;;;5.07;;
57573;SDS011;68988;49.000;21.242;2023-06-22T14:38:14;8.27;;;5.15;;
57573;SDS011;68988;49.000;21.242;2023-06-22T14:40:39;7.03;;;6.00;;
57573;SDS011;68988;49.000;21.242;2023-06-22T14:43:05;7.97;;;5.30;;